sensor_id;sensor_type;location;lat;lon;timestamp;pressure;altitude;pressure_sealevel;temperature;humidity
47670;BME280;33408;52.062;11.722;2023-08-20T00:00:57;101506.22;;;23.88;100.00
47670;BME280;33408;52.062;11.722;2023-08-20T00:03:24;101504.75;;;23.82;100.00
47670;BME280;33408;52.062;11.722;2023-08-20T00:05:53;101511.41;;;23.90;100.00
47670;BME280;33408;52.062;11.722;2023-08-20T00:08:20;101514.34;;;23.85;100.00
47670;BME280;33408;52.062;11.722;2023-08-20T00:10:46;101512.69;;;23.82;100.00
47670;BME280;33408;52.062;11.722;2023-08-20T00:13:13;101510.13;;;23.81;100.00
47670;BME280;33408;52.062;11.722;2023-08-20T00:15:40;101512.50;;;23.71;100.00
47670;BME280;33408;52.062;11.722;2023-08-20T00:18:08;101513.75;;;23.80;100.00
47670;BME280;33408;52.062;11.722;2023-08-20T00:20:35;101513.38;;;23.72;100.00
47670;BME280;33408;52.062;11.722;2023-08-20T00:23:04;101518.66;;;23.72;100.00
47670;BME280;33408;52.062;11.722;2023-08-20T00:25:31;101525.56;;;23.74;100.00
47670;BME280;33408;52.062;11.722;2023-08-20T00:27:58;101529.72;;;23.64;100.00
47670;BME280;33408;52.062;11.722;2023-08-20T00:30:24;101537.47;;;23.67;100.00
47670;BME280;33408;52.062;11.722;2023-08-20T00:32:51;101538.13;;;23.56;100.00
47670;BME280;33408;52.062;11.722;2023-08-20T00:35:18;101539.06;;;23.55;100.00
47670;BME280;33408;52.062;11.722;2023-08-20T00:37:44;101549.63;;;23.55;100.00
47670;BME280;33408;52.062;11.722;2023-08-20T00:40:12;101549.06;;;23.50;100.00
47670;BME280;33408;52.062;11.722;2023-08-20T00:42:39;101545.41;;;23.53;100.00
47670;BME280;33408;52.062;11.722;2023-08-20T00:45:06;101548.22;;;23.49;100.00
47670;BME280;33408;52.062;11.722;2023-08-20T00:47:33;101552.09;;;23.44;100.00
47670;BME280;33408;52.062;11.722;2023-08-20T00:50:01;101558.06;;;23.47;100.00
47670;BME280;33408;52.062;11.722;2023-08-20T00:52:31;101549.44;;;23.44;100.00
47670;BME280;33408;52.062;11.722;2023-08-20T00:54:57;101555.41;;;23.47;100.00
47670;BME280;33408;52.062;11.722;2023-08-20T00:57:26;101556.53;;;23.43;100.00
47670;BME280;33408;52.062;11.722;2023-08-20T00:59:54;101564.34;;;23.30;100.00
47670;BME280;33408;52.062;11.722;2023-08-20T01:02:22;101568.47;;;23.20;100.00
47670;BME280;33408;52.062;11.722;2023-08-20T01:04:48;101577.94;;;23.24;100.00
47670;BME280;33408;52.062;11.722;2023-08-20T01:07:21;101589.66;;;23.20;100.00
47670;BME280;33408;52.062;11.722;2023-08-20T01:09:58;101580.84;;;23.20;100.00
47670;BME280;33408;52.062;11.722;2023-08-20T01:12:34;101578.97;;;23.22;100.00
47670;BME280;33408;52.062;11.722;2023-08-20T01:15:01;101575.63;;;23.18;100.00
47670;BME280;33408;52.062;11.722;2023-08-20T01:17:27;101589.09;;;23.29;100.00
47670;BME280;33408;52.062;11.722;2023-08-20T01:19:54;101583.97;;;23.26;100.00
47670;BME280;33408;52.062;11.722;2023-08-20T01:22:33;101579.72;;;23.24;100.00
47670;BME280;33408;52.062;11.722;2023-08-20T01:25:11;101576.50;;;23.19;100.00
47670;BME280;33408;52.062;11.722;2023-08-20T01:27:52;101588.03;;;23.18;100.00
47670;BME280;33408;52.062;11.722;2023-08-20T01:30:26;101585.72;;;23.11;100.00
47670;BME280;33408;52.062;11.722;2023-08-20T01:32:54;101588.47;;;23.10;100.00
47670;BME280;33408;52.062;11.722;2023-08-20T01:35:24;101585.72;;;23.11;100.00
47670;BME280;33408;52.062;11.722;2023-08-20T01:37:50;101595.28;;;23.14;100.00
47670;BME280;33408;52.062;11.722;2023-08-20T01:40:17;101601.25;;;23.02;100.00
47670;BME280;33408;52.062;11.722;2023-08-20T01:42:43;101613.88;;;22.97;100.00
47670;BME280;33408;52.062;11.722;2023-08-20T01:45:10;101616.59;;;22.95;100.00
47670;BME280;33408;52.062;11.722;2023-08-20T01:47:38;101622.50;;;22.84;100.00
47670;BME280;33408;52.062;11.722;2023-08-20T01:50:05;101614.47;;;22.86;100.00
47670;BME280;33408;52.062;11.722;2023-08-20T01:52:32;101613.63;;;22.85;100.00
47670;BME280;33408;52.062;11.722;2023-08-20T01:54:59;101626.00;;;22.85;100.00
47670;BME280;33408;52.062;11.722;2023-08-20T01:57:25;101628.97;;;22.94;100.00
47670;BME280;33408;52.062;11.722;2023-08-20T01:59:52;101640.06;;;22.85;100.00
47670;BME280;33408;52.062;11.722;2023-08-20T02:02:18;101628.47;;;22.72;100.00
47670;BME280;33408;52.062;11.722;2023-08-20T02:04:46;101635.97;;;22.64;100.00
47670;BME280;33408;52.062;11.722;2023-08-20T02:07:13;101638.25;;;22.70;100.00
47670;BME280;33408;52.062;11.722;2023-08-20T02:09:39;101643.66;;;22.52;100.00
47670;BME280;33408;52.062;11.722;2023-08-20T02:12:07;101642.84;;;22.50;100.00
47670;BME280;33408;52.062;11.722;2023-08-20T02:14:34;101642.28;;;22.61;100.00
47670;BME280;33408;52.062;11.722;2023-08-20T02:17:01;101645.34;;;22.53;100.00
47670;BME280;33408;52.062;11.722;2023-08-20T02:19:27;101640.81;;;22.55;100.00
47670;BME280;33408;52.062;11.722;2023-08-20T02:21:55;101644.41;;;22.54;100.00
47670;BME280;33408;52.062;11.722;2023-08-20T02:24:22;101651.72;;;22.49;100.00
47670;BME280;33408;52.062;11.722;2023-08-20T02:26:49;101650.38;;;22.58;100.00
47670;BME280;33408;52.062;11.722;2023-08-20T02:29:15;101657.38;;;22.59;100.00
47670;BME280;33408;52.062;11.722;2023-08-20T02:31:42;101656.34;;;22.62;100.00
47670;BME280;33408;52.062;11.722;2023-08-20T02:34:08;101661.03;;;22.56;100.00
47670;BME280;33408;52.062;11.722;2023-08-20T02:36:35;101656.94;;;22.67;100.00
47670;BME280;33408;52.062;11.722;2023-08-20T02:39:03;101660.94;;;22.58;100.00
47670;BME280;33408;52.062;11.722;2023-08-20T02:41:33;101658.81;;;22.65;100.00
47670;BME280;33408;52.062;11.722;2023-08-20T02:43:59;101649.28;;;22.62;100.00
47670;BME280;33408;52.062;11.722;2023-08-20T02:46:26;101659.06;;;22.60;100.00
47670;BME280;33408;52.062;11.722;2023-08-20T02:48:52;101665.47;;;22.56;100.00
47670;BME280;33408;52.062;11.722;2023-08-20T02:51:19;101655.13;;;22.51;100.00
47670;BME280;33408;52.062;11.722;2023-08-20T02:53:46;101657.28;;;22.61;100.00
47670;BME280;33408;52.062;11.722;2023-08-20T02:56:14;101662.75;;;22.57;100.00
47670;BME280;33408;52.062;11.722;2023-08-20T02:58:40;101660.38;;;22.69;100.00
47670;BME280;33408;52.062;11.722;2023-08-20T03:01:07;101659.56;;;22.67;100.00
47670;BME280;33408;52.062;11.722;2023-08-20T03:03:43;101657.03;;;22.81;100.00
47670;BME280;33408;52.062;11.722;2023-08-20T03:06:10;101652.59;;;22.66;100.00
47670;BME280;33408;52.062;11.722;2023-08-20T03:08:36;101658.56;;;22.69;100.00
47670;BME280;33408;52.062;11.722;2023-08-20T03:11:03;101655.75;;;22.72;100.00
47670;BME280;33408;52.062;11.722;2023-08-20T03:13:31;101657.22;;;22.62;100.00
47670;BME280;33408;52.062;11.722;2023-08-20T03:15:57;101653.19;;;22.71;100.00
47670;BME280;33408;52.062;11.722;2023-08-20T03:18:24;101650.63;;;22.69;100.00
47670;BME280;33408;52.062;11.722;2023-08-20T03:20:51;101658.81;;;22.81;100.00
47670;BME280;33408;52.062;11.722;2023-08-20T03:23:17;101661.88;;;22.73;100.00
47670;BME280;33408;52.062;11.722;2023-08-20T03:25:44;101654.91;;;22.72;100.00
47670;BME280;33408;52.062;11.722;2023-08-20T03:28:10;101654.66;;;22.61;100.00
47670;BME280;33408;52.062;11.722;2023-08-20T03:30:38;101662.50;;;22.62;100.00
47670;BME280;33408;52.062;11.722;2023-08-20T03:33:05;101671.44;;;22.60;100.00
47670;BME280;33408;52.062;11.722;2023-08-20T03:35:31;101669.13;;;22.69;100.00
47670;BME280;33408;52.062;11.722;2023-08-20T03:37:58;101662.50;;;22.62;100.00
47670;BME280;33408;52.062;11.722;2023-08-20T03:40:24;101662.56;;;22.61;100.00
47670;BME280;33408;52.062;11.722;2023-08-20T03:42:51;101665.38;;;22.57;100.00
47670;BME280;33408;52.062;11.722;2023-08-20T03:45:17;101662.31;;;22.49;100.00
47670;BME280;33408;52.062;11.722;2023-08-20T03:47:45;101667.88;;;22.61;100.00
47670;BME280;33408;52.062;11.722;2023-08-20T03:50:12;101669.13;;;22.53;100.00
47670;BME280;33408;52.062;11.722;2023-08-20T03:52:39;101659.91;;;22.45;100.00
47670;BME280;33408;52.062;11.722;2023-08-20T03:55:06;101659.38;;;22.54;100.00
47670;BME280;33408;52.062;11.722;2023-08-20T03:57:33;101658.53;;;22.53;100.00
47670;BME280;33408;52.062;11.722;2023-08-20T03:59:59;101656.75;;;22.54;100.00
47670;BME280;33408;52.062;11.722;2023-08-20T04:02:26;101653.81;;;22.43;100.00
47670;BME280;33408;52.062;11.722;2023-08-20T04:04:54;101658.34;;;22.40;100.00
47670;BME280;33408;52.062;11.722;2023-08-20T04:07:20;101663.63;;;22.40;100.00
47670;BME280;33408;52.062;11.722;2023-08-20T04:09:47;101661.06;;;22.39;100.00
47670;BME280;33408;52.062;11.722;2023-08-20T04:12:13;101664.66;;;22.38;100.00
47670;BME280;33408;52.062;11.722;2023-08-20T04:14:40;101662.50;;;22.11;100.00
47670;BME280;33408;52.062;11.722;2023-08-20T04:17:06;101674.84;;;22.28;100.00
47670;BME280;33408;52.062;11.722;2023-08-20T04:19:33;101671.72;;;22.20;100.00
47670;BME280;33408;52.062;11.722;2023-08-20T04:22:01;101673.28;;;22.24;100.00
47670;BME280;33408;52.062;11.722;2023-08-20T04:24:28;101663.72;;;22.21;100.00
47670;BME280;33408;52.062;11.722;2023-08-20T04:26:54;101672.44;;;22.24;100.00
47670;BME280;33408;52.062;11.722;2023-08-20T04:29:22;101673.44;;;22.21;100.00
47670;BME280;33408;52.062;11.722;2023-08-20T04:31:48;101673.69;;;22.16;100.00
47670;BME280;33408;52.062;11.722;2023-08-20T04:34:15;101683.09;;;22.22;100.00
47670;BME280;33408;52.062;11.722;2023-08-20T04:36:42;101679.50;;;22.23;100.00
47670;BME280;33408;52.062;11.722;2023-08-20T04:39:09;101678.97;;;22.16;100.00
47670;BME280;33408;52.062;11.722;2023-08-20T04:41:36;101675.09;;;22.24;100.00
47670;BME280;33408;52.062;11.722;2023-08-20T04:44:03;101672.47;;;22.73;100.00
47670;BME280;33408;52.062;11.722;2023-08-20T04:46:30;101669.22;;;22.84;100.00
47670;BME280;33408;52.062;11.722;2023-08-20T04:48:56;101668.47;;;22.82;100.00
47670;BME280;33408;52.062;11.722;2023-08-20T04:51:23;101679.75;;;23.17;100.00
47670;BME280;33408;52.062;11.722;2023-08-20T04:53:49;101683.16;;;23.65;100.00
47670;BME280;33408;52.062;11.722;2023-08-20T04:56:17;101676.19;;;23.79;100.00
47670;BME280;33408;52.062;11.722;2023-08-20T04:58:44;101672.91;;;23.13;100.00
47670;BME280;33408;52.062;11.722;2023-08-20T05:01:10;101669.50;;;23.88;100.00
47670;BME280;33408;52.062;11.722;2023-08-20T05:03:37;101678.66;;;23.82;100.00
47670;BME280;33408;52.062;11.722;2023-08-20T05:06:04;101690.81;;;24.00;100.00
47670;BME280;33408;52.062;11.722;2023-08-20T05:08:30;101687.66;;;23.63;100.00
47670;BME280;33408;52.062;11.722;2023-08-20T05:10:57;101672.00;;;24.05;100.00
47670;BME280;33408;52.062;11.722;2023-08-20T05:13:25;101667.09;;;24.13;100.00
47670;BME280;33408;52.062;11.722;2023-08-20T05:15:51;101679.50;;;24.42;100.00
47670;BME280;33408;52.062;11.722;2023-08-20T05:18:18;101683.19;;;24.53;100.00
47670;BME280;33408;52.062;11.722;2023-08-20T05:20:44;101686.34;;;24.31;100.00
47670;BME280;33408;52.062;11.722;2023-08-20T05:23:11;101707.53;;;23.87;100.00
47670;BME280;33408;52.062;11.722;2023-08-20T05:25:37;101705.75;;;23.71;100.00
47670;BME280;33408;52.062;11.722;2023-08-20T05:28:05;101693.69;;;24.26;100.00
47670;BME280;33408;52.062;11.722;2023-08-20T05:30:33;101696.06;;;24.45;100.00
47670;BME280;33408;52.062;11.722;2023-08-20T05:33:00;101701.63;;;24.98;100.00
47670;BME280;33408;52.062;11.722;2023-08-20T05:35:26;101699.19;;;24.81;100.00
47670;BME280;33408;52.062;11.722;2023-08-20T05:37:53;101703.72;;;24.35;100.00
47670;BME280;33408;52.062;11.722;2023-08-20T05:40:20;101713.50;;;24.49;100.00
47670;BME280;33408;52.062;11.722;2023-08-20T05:42:46;101726.50;;;24.09;100.00
47670;BME280;33408;52.062;11.722;2023-08-20T05:45:13;101737.38;;;24.05;100.00
47670;BME280;33408;52.062;11.722;2023-08-20T05:47:41;101740.66;;;23.94;100.00
47670;BME280;33408;52.062;11.722;2023-08-20T05:50:08;101740.34;;;23.84;100.00
47670;BME280;33408;52.062;11.722;2023-08-20T05:52:35;101745.06;;;23.47;100.00
47670;BME280;33408;52.062;11.722;2023-08-20T05:55:02;101743.06;;;24.13;100.00
47670;BME280;33408;52.062;11.722;2023-08-20T05:57:29;101745.94;;;24.24;100.00
47670;BME280;33408;52.062;11.722;2023-08-20T05:59:56;101743.06;;;24.57;100.00
47670;BME280;33408;52.062;11.722;2023-08-20T06:02:23;101744.03;;;24.26;100.00
47670;BME280;33408;52.062;11.722;2023-08-20T06:04:50;101749.28;;;23.97;100.00
47670;BME280;33408;52.062;11.722;2023-08-20T06:07:17;101750.19;;;23.50;100.00
47670;BME280;33408;52.062;11.722;2023-08-20T06:09:44;101742.91;;;23.70;100.00
47670;BME280;33408;52.062;11.722;2023-08-20T06:12:11;101740.59;;;24.69;100.00
47670;BME280;33408;52.062;11.722;2023-08-20T06:14:38;101735.13;;;25.28;100.00
47670;BME280;33408;52.062;11.722;2023-08-20T06:17:04;101731.28;;;24.62;100.00
47670;BME280;33408;52.062;11.722;2023-08-20T06:19:31;101727.38;;;24.38;100.00
47670;BME280;33408;52.062;11.722;2023-08-20T06:21:59;101720.75;;;25.45;100.00
47670;BME280;33408;52.062;11.722;2023-08-20T06:24:26;101715.41;;;25.72;100.00
47670;BME280;33408;52.062;11.722;2023-08-20T06:26:52;101723.56;;;25.15;100.00
47670;BME280;33408;52.062;11.722;2023-08-20T06:29:19;101727.75;;;24.32;100.00
47670;BME280;33408;52.062;11.722;2023-08-20T06:31:47;101735.44;;;23.92;100.00
47670;BME280;33408;52.062;11.722;2023-08-20T06:34:13;101738.56;;;23.84;100.00
47670;BME280;33408;52.062;11.722;2023-08-20T06:36:40;101739.78;;;23.31;100.00
47670;BME280;33408;52.062;11.722;2023-08-20T06:39:08;101747.22;;;23.40;100.00
47670;BME280;33408;52.062;11.722;2023-08-20T06:41:34;101759.53;;;23.88;100.00
47670;BME280;33408;52.062;11.722;2023-08-20T06:44:01;101759.94;;;24.12;100.00
47670;BME280;33408;52.062;11.722;2023-08-20T06:46:28;101761.53;;;24.59;100.00
47670;BME280;33408;52.062;11.722;2023-08-20T06:48:55;101750.03;;;24.87;100.00
47670;BME280;33408;52.062;11.722;2023-08-20T06:51:21;101754.66;;;24.40;100.00
47670;BME280;33408;52.062;11.722;2023-08-20T06:53:48;101778.38;;;23.83;100.00
47670;BME280;33408;52.062;11.722;2023-08-20T06:56:16;101781.91;;;23.82;100.00
47670;BME280;33408;52.062;11.722;2023-08-20T06:58:43;101784.75;;;23.79;100.00
47670;BME280;33408;52.062;11.722;2023-08-20T07:01:09;101786.41;;;23.65;100.00
47670;BME280;33408;52.062;11.722;2023-08-20T07:03:38;101781.56;;;24.04;100.00
47670;BME280;33408;52.062;11.722;2023-08-20T07:06:06;101793.78;;;23.91;100.00
47670;BME280;33408;52.062;11.722;2023-08-20T07:08:32;101784.06;;;24.21;100.00
47670;BME280;33408;52.062;11.722;2023-08-20T07:10:59;101779.38;;;24.41;100.00
47670;BME280;33408;52.062;11.722;2023-08-20T07:13:27;101790.59;;;24.30;100.00
47670;BME280;33408;52.062;11.722;2023-08-20T07:15:54;101791.66;;;24.42;100.00
47670;BME280;33408;52.062;11.722;2023-08-20T07:18:21;101789.84;;;24.73;100.00
47670;BME280;33408;52.062;11.722;2023-08-20T07:20:48;101783.44;;;24.47;100.00
47670;BME280;33408;52.062;11.722;2023-08-20T07:23:14;101778.28;;;24.29;100.00
47670;BME280;33408;52.062;11.722;2023-08-20T07:25:41;101781.13;;;24.26;100.00
47670;BME280;33408;52.062;11.722;2023-08-20T07:28:08;101780.56;;;24.35;100.00
47670;BME280;33408;52.062;11.722;2023-08-20T07:30:38;101779.56;;;24.38;100.00
47670;BME280;33408;52.062;11.722;2023-08-20T07:33:05;101773.78;;;24.46;100.00
47670;BME280;33408;52.062;11.722;2023-08-20T07:35:32;101769.59;;;24.27;100.00
47670;BME280;33408;52.062;11.722;2023-08-20T07:38:00;101754.53;;;24.28;100.00
47670;BME280;33408;52.062;11.722;2023-08-20T07:40:27;101747.66;;;24.54;98.10
47670;BME280;33408;52.062;11.722;2023-08-20T07:42:54;101752.50;;;24.62;100.00
47670;BME280;33408;52.062;11.722;2023-08-20T07:45:21;101742.09;;;24.44;100.00
47670;BME280;33408;52.062;11.722;2023-08-20T07:47:49;101748.34;;;24.57;100.00
47670;BME280;33408;52.062;11.722;2023-08-20T07:50:16;101743.44;;;24.66;100.00
47670;BME280;33408;52.062;11.722;2023-08-20T07:52:42;101746.25;;;24.91;99.64
47670;BME280;33408;52.062;11.722;2023-08-20T07:55:09;101747.94;;;25.07;95.36
47670;BME280;33408;52.062;11.722;2023-08-20T07:57:35;101746.94;;;25.37;95.12
47670;BME280;33408;52.062;11.722;2023-08-20T08:00:02;101753.88;;;25.39;92.56
47670;BME280;33408;52.062;11.722;2023-08-20T08:02:30;101739.81;;;25.23;93.27
47670;BME280;33408;52.062;11.722;2023-08-20T08:04:58;101745.81;;;25.81;91.34
47670;BME280;33408;52.062;11.722;2023-08-20T08:07:25;101747.38;;;25.71;89.15
47670;BME280;33408;52.062;11.722;2023-08-20T08:09:52;101748.75;;;25.36;90.41
47670;BME280;33408;52.062;11.722;2023-08-20T08:12:18;101745.94;;;25.79;87.38
47670;BME280;33408;52.062;11.722;2023-08-20T08:14:45;101752.19;;;25.78;85.18
47670;BME280;33408;52.062;11.722;2023-08-20T08:17:12;101753.31;;;26.01;84.01
47670;BME280;33408;52.062;11.722;2023-08-20T08:19:38;101756.81;;;25.62;83.22
47670;BME280;33408;52.062;11.722;2023-08-20T08:22:06;101755.56;;;26.08;81.12
47670;BME280;33408;52.062;11.722;2023-08-20T08:24:33;101752.38;;;26.15;81.07
47670;BME280;33408;52.062;11.722;2023-08-20T08:26:59;101748.88;;;26.53;79.97
47670;BME280;33408;52.062;11.722;2023-08-20T08:29:26;101739.53;;;26.35;80.99
47670;BME280;33408;52.062;11.722;2023-08-20T08:31:52;101749.50;;;26.06;75.74
47670;BME280;33408;52.062;11.722;2023-08-20T08:34:19;101752.81;;;26.35;74.77
47670;BME280;33408;52.062;11.722;2023-08-20T08:36:46;101750.47;;;25.77;80.19
47670;BME280;33408;52.062;11.722;2023-08-20T08:39:14;101745.03;;;26.32;78.50
47670;BME280;33408;52.062;11.722;2023-08-20T08:41:41;101754.72;;;26.20;77.87
47670;BME280;33408;52.062;11.722;2023-08-20T08:44:09;101754.00;;;26.18;81.56
47670;BME280;33408;52.062;11.722;2023-08-20T08:46:38;101750.03;;;26.24;77.75
47670;BME280;33408;52.062;11.722;2023-08-20T08:49:04;101749.84;;;26.27;77.11
47670;BME280;33408;52.062;11.722;2023-08-20T08:51:33;101754.81;;;26.57;79.13
47670;BME280;33408;52.062;11.722;2023-08-20T08:54:01;101756.97;;;26.39;77.30
47670;BME280;33408;52.062;11.722;2023-08-20T08:56:29;101757.50;;;26.31;73.98
47670;BME280;33408;52.062;11.722;2023-08-20T08:58:56;101763.66;;;26.32;71.76
47670;BME280;33408;52.062;11.722;2023-08-20T09:01:25;101756.31;;;26.23;70.05
47670;BME280;33408;52.062;11.722;2023-08-20T09:03:52;101753.75;;;26.60;70.35
47670;BME280;33408;52.062;11.722;2023-08-20T09:06:19;101757.91;;;27.26;69.44
47670;BME280;33408;52.062;11.722;2023-08-20T09:08:45;101754.94;;;27.55;70.37
47670;BME280;33408;52.062;11.722;2023-08-20T09:11:12;101757.38;;;27.21;73.92
47670;BME280;33408;52.062;11.722;2023-08-20T09:13:41;101754.47;;;27.00;74.21
47670;BME280;33408;52.062;11.722;2023-08-20T09:16:10;101748.94;;;27.03;72.39
47670;BME280;33408;52.062;11.722;2023-08-20T09:18:40;101747.06;;;26.80;77.31
47670;BME280;33408;52.062;11.722;2023-08-20T09:21:07;101738.16;;;26.68;74.70
47670;BME280;33408;52.062;11.722;2023-08-20T09:23:35;101745.16;;;26.69;74.96
47670;BME280;33408;52.062;11.722;2023-08-20T09:26:03;101746.50;;;27.00;76.10
47670;BME280;33408;52.062;11.722;2023-08-20T09:28:42;101745.31;;;26.91;76.34
47670;BME280;33408;52.062;11.722;2023-08-20T09:31:08;101740.06;;;26.66;75.89
47670;BME280;33408;52.062;11.722;2023-08-20T09:33:35;101756.22;;;27.13;74.19
47670;BME280;33408;52.062;11.722;2023-08-20T09:36:02;101756.97;;;27.52;73.22
47670;BME280;33408;52.062;11.722;2023-08-20T09:38:29;101750.38;;;27.69;73.71
47670;BME280;33408;52.062;11.722;2023-08-20T09:40:55;101750.00;;;27.01;74.32
47670;BME280;33408;52.062;11.722;2023-08-20T09:43:24;101747.59;;;27.22;74.18
47670;BME280;33408;52.062;11.722;2023-08-20T09:45:55;101745.47;;;27.51;72.71
47670;BME280;33408;52.062;11.722;2023-08-20T09:48:24;101743.00;;;27.72;72.35
47670;BME280;33408;52.062;11.722;2023-08-20T09:50:56;101747.06;;;27.89;71.44
47670;BME280;33408;52.062;11.722;2023-08-20T09:53:26;101743.47;;;27.66;75.06
47670;BME280;33408;52.062;11.722;2023-08-20T09:55:55;101742.03;;;27.97;74.03
47670;BME280;33408;52.062;11.722;2023-08-20T09:58:23;101737.00;;;27.93;72.98
47670;BME280;33408;52.062;11.722;2023-08-20T10:00:51;101741.69;;;28.13;75.14
47670;BME280;33408;52.062;11.722;2023-08-20T10:03:20;101732.25;;;27.50;74.57
47670;BME280;33408;52.062;11.722;2023-08-20T10:05:48;101745.31;;;27.77;76.46
47670;BME280;33408;52.062;11.722;2023-08-20T10:08:15;101746.56;;;28.19;75.05
47670;BME280;33408;52.062;11.722;2023-08-20T10:10:42;101738.56;;;28.31;77.43
47670;BME280;33408;52.062;11.722;2023-08-20T10:13:08;101735.44;;;28.48;74.23
47670;BME280;33408;52.062;11.722;2023-08-20T10:15:36;101736.25;;;28.15;70.82
47670;BME280;33408;52.062;11.722;2023-08-20T10:18:04;101735.28;;;29.06;73.00
47670;BME280;33408;52.062;11.722;2023-08-20T10:20:32;101746.22;;;28.47;71.07
47670;BME280;33408;52.062;11.722;2023-08-20T10:23:00;101740.50;;;28.29;71.32
47670;BME280;33408;52.062;11.722;2023-08-20T10:25:29;101741.38;;;28.86;72.70
47670;BME280;33408;52.062;11.722;2023-08-20T10:28:11;101735.94;;;28.76;66.45
47670;BME280;33408;52.062;11.722;2023-08-20T10:30:38;101734.72;;;28.58;67.31
47670;BME280;33408;52.062;11.722;2023-08-20T10:33:08;101736.41;;;28.36;70.46
47670;BME280;33408;52.062;11.722;2023-08-20T10:35:47;101726.59;;;28.70;67.13
47670;BME280;33408;52.062;11.722;2023-08-20T10:38:16;101724.66;;;28.84;66.09
47670;BME280;33408;52.062;11.722;2023-08-20T10:40:51;101729.56;;;28.20;66.77
47670;BME280;33408;52.062;11.722;2023-08-20T10:43:31;101733.28;;;28.76;64.35
47670;BME280;33408;52.062;11.722;2023-08-20T10:46:05;101726.34;;;28.73;65.41
47670;BME280;33408;52.062;11.722;2023-08-20T10:48:34;101737.88;;;28.40;70.75
47670;BME280;33408;52.062;11.722;2023-08-20T10:51:08;101729.03;;;28.62;69.68
47670;BME280;33408;52.062;11.722;2023-08-20T10:53:35;101734.47;;;28.72;71.42
47670;BME280;33408;52.062;11.722;2023-08-20T10:56:13;101727.66;;;28.23;70.16
47670;BME280;33408;52.062;11.722;2023-08-20T10:58:45;101719.53;;;28.92;71.85
47670;BME280;33408;52.062;11.722;2023-08-20T11:01:17;101727.44;;;28.82;64.08
47670;BME280;33408;52.062;11.722;2023-08-20T11:03:46;101731.88;;;28.25;64.95
47670;BME280;33408;52.062;11.722;2023-08-20T11:06:15;101721.97;;;28.84;63.37
47670;BME280;33408;52.062;11.722;2023-08-20T11:08:42;101726.47;;;28.61;60.97
47670;BME280;33408;52.062;11.722;2023-08-20T11:11:09;101728.19;;;28.73;62.20
47670;BME280;33408;52.062;11.722;2023-08-20T11:13:36;101730.38;;;28.68;60.74
47670;BME280;33408;52.062;11.722;2023-08-20T11:16:04;101733.63;;;28.60;61.70
47670;BME280;33408;52.062;11.722;2023-08-20T11:18:32;101726.91;;;29.11;60.13
47670;BME280;33408;52.062;11.722;2023-08-20T11:20:59;101725.06;;;29.23;58.49
47670;BME280;33408;52.062;11.722;2023-08-20T11:23:27;101726.56;;;28.82;59.01
47670;BME280;33408;52.062;11.722;2023-08-20T11:25:54;101727.91;;;28.99;60.95
47670;BME280;33408;52.062;11.722;2023-08-20T11:28:21;101725.50;;;28.84;57.41
47670;BME280;33408;52.062;11.722;2023-08-20T11:30:47;101727.63;;;29.24;59.57
47670;BME280;33408;52.062;11.722;2023-08-20T11:33:16;101729.59;;;29.00;60.03
47670;BME280;33408;52.062;11.722;2023-08-20T11:35:42;101724.94;;;29.13;60.05
47670;BME280;33408;52.062;11.722;2023-08-20T11:38:09;101722.53;;;29.10;59.40
47670;BME280;33408;52.062;11.722;2023-08-20T11:40:37;101717.22;;;29.42;57.83
47670;BME280;33408;52.062;11.722;2023-08-20T11:43:04;101720.31;;;29.15;59.71
47670;BME280;33408;52.062;11.722;2023-08-20T11:45:31;101715.44;;;29.32;59.38
47670;BME280;33408;52.062;11.722;2023-08-20T11:47:58;101706.75;;;29.51;57.67
47670;BME280;33408;52.062;11.722;2023-08-20T11:50:26;101708.91;;;29.57;59.29
47670;BME280;33408;52.062;11.722;2023-08-20T11:52:53;101707.03;;;29.36;56.87
47670;BME280;33408;52.062;11.722;2023-08-20T11:55:24;101702.34;;;29.61;53.86
47670;BME280;33408;52.062;11.722;2023-08-20T11:57:52;101709.59;;;29.91;53.71
47670;BME280;33408;52.062;11.722;2023-08-20T12:00:26;101703.63;;;29.67;54.98
47670;BME280;33408;52.062;11.722;2023-08-20T12:02:57;101696.88;;;30.05;53.94
47670;BME280;33408;52.062;11.722;2023-08-20T12:05:26;101696.25;;;30.43;54.44
47670;BME280;33408;52.062;11.722;2023-08-20T12:07:56;101697.22;;;29.90;56.10
47670;BME280;33408;52.062;11.722;2023-08-20T12:10:26;101694.47;;;30.02;53.70
47670;BME280;33408;52.062;11.722;2023-08-20T12:12:55;101687.00;;;29.42;53.99
47670;BME280;33408;52.062;11.722;2023-08-20T12:15:23;101696.53;;;30.19;55.64
47670;BME280;33408;52.062;11.722;2023-08-20T12:17:57;101688.72;;;30.37;60.50
47670;BME280;33408;52.062;11.722;2023-08-20T12:20:27;101687.34;;;30.43;57.85
47670;BME280;33408;52.062;11.722;2023-08-20T12:22:54;101689.34;;;30.19;53.88
47670;BME280;33408;52.062;11.722;2023-08-20T12:25:21;101684.72;;;30.52;53.96
47670;BME280;33408;52.062;11.722;2023-08-20T12:27:47;101678.16;;;30.05;51.34
47670;BME280;33408;52.062;11.722;2023-08-20T12:30:16;101681.88;;;30.44;51.81
47670;BME280;33408;52.062;11.722;2023-08-20T12:32:43;101681.28;;;30.10;53.75
47670;BME280;33408;52.062;11.722;2023-08-20T12:35:09;101680.13;;;30.64;50.83